createdAt,value
2023-09-07T00:01:54.272Z,5.63
2023-09-07T00:06:56.256Z,5.47
2023-09-07T00:11:58.840Z,5.38
2023-09-07T00:17:00.674Z,5.68
2023-09-07T00:22:02.570Z,5.75
2023-09-07T00:27:06.881Z,5.80
2023-09-07T00:32:08.681Z,5.88
2023-09-07T00:37:10.461Z,5.88
2023-09-07T00:42:12.234Z,6.25
2023-09-07T00:47:14.863Z,5.88
2023-09-07T00:52:18.506Z,6.32
2023-09-07T00:57:20.279Z,7.95
2023-09-07T01:02:22.208Z,6.32
2023-09-07T01:07:39.326Z,5.88
2023-09-07T01:12:41.809Z,6.30
2023-09-07T01:17:45.533Z,6.25
2023-09-07T01:22:48.074Z,6.50
2023-09-07T01:27:51.548Z,6.22
2023-09-07T01:32:53.496Z,6.97
2023-09-07T01:37:55.313Z,6.43
2023-09-07T01:42:57.072Z,6.68
2023-09-07T01:48:00.753Z,6.90
2023-09-07T01:53:04.410Z,6.32
2023-09-07T01:58:06.116Z,6.53
2023-09-07T02:03:08.042Z,6.90
2023-09-07T02:08:09.882Z,6.50
2023-09-07T02:13:12.769Z,7.22
2023-09-07T02:18:14.536Z,7.60
2023-09-07T02:23:16.352Z,7.90
2023-09-07T02:28:18.152Z,7.65
2023-09-07T02:33:20.112Z,7.25
2023-09-07T02:38:21.929Z,7.13
2023-09-07T02:43:23.803Z,7.18
2023-09-07T02:48:25.629Z,7.60
2023-09-07T02:53:27.408Z,7.43
2023-09-07T02:58:29.329Z,7.88
2023-09-07T03:03:31.301Z,7.40
2023-09-07T03:08:33.542Z,7.00
2023-09-07T03:13:35.825Z,7.53
2023-09-07T03:18:37.615Z,7.90
2023-09-07T03:23:45.205Z,7.57
2023-09-07T03:28:47.206Z,8.05
2023-09-07T03:33:49.800Z,7.40
2023-09-07T03:38:51.628Z,8.00
2023-09-07T03:43:53.339Z,8.20
2023-09-07T03:48:55.124Z,8.23
2023-09-07T03:53:56.894Z,7.38
2023-09-07T03:58:58.626Z,8.60
2023-09-07T04:04:00.420Z,8.43
2023-09-07T04:09:02.301Z,8.90
2023-09-07T04:14:04.199Z,9.20
2023-09-07T04:19:05.926Z,8.50
2023-09-07T04:24:07.890Z,9.13
2023-09-07T04:29:09.721Z,9.10
2023-09-07T04:34:11.591Z,7.82
2023-09-07T04:39:15.312Z,8.18
2023-09-07T04:44:17.037Z,8.20
2023-09-07T04:49:18.791Z,8.32
2023-09-07T04:54:20.528Z,8.95
2023-09-07T04:59:22.297Z,9.48
2023-09-07T05:04:24.183Z,8.75
2023-09-07T05:09:26.474Z,9.82
2023-09-07T05:14:28.364Z,9.27
2023-09-07T05:19:30.070Z,9.88
2023-09-07T05:24:31.890Z,10.35
2023-09-07T05:29:33.687Z,10.68
2023-09-07T05:34:35.431Z,9.90
2023-09-07T05:39:37.197Z,10.30
2023-09-07T05:44:39.207Z,10.60
2023-09-07T05:49:41.104Z,11.00
2023-09-07T05:54:42.807Z,10.40
2023-09-07T05:59:44.600Z,10.75
2023-09-07T06:04:46.670Z,10.77
2023-09-07T06:09:48.725Z,10.82
2023-09-07T06:14:50.467Z,10.50
2023-09-07T06:19:52.771Z,10.73
2023-09-07T06:24:56.024Z,10.60
2023-09-07T06:29:57.852Z,10.32
2023-09-07T06:34:59.629Z,9.63
2023-09-07T06:40:01.445Z,9.73
2023-09-07T06:45:03.877Z,9.80
2023-09-07T06:50:06.785Z,8.10
2023-09-07T06:55:08.711Z,9.15
2023-09-07T07:00:11.662Z,7.32
2023-09-07T07:05:13.792Z,7.80
2023-09-07T07:10:15.618Z,8.60
2023-09-07T07:15:17.571Z,7.50
2023-09-07T07:20:19.393Z,8.10
2023-09-07T07:25:21.207Z,7.63
2023-09-07T07:30:22.918Z,8.07
2023-09-07T07:35:24.811Z,7.63
2023-09-07T07:40:26.587Z,7.50
2023-09-07T07:45:28.419Z,7.35
2023-09-07T07:50:30.200Z,7.85
2023-09-07T07:55:32.036Z,7.90
2023-09-07T08:00:33.788Z,7.85
2023-09-07T08:05:36.029Z,7.85
2023-09-07T08:10:38.545Z,7.28
2023-09-07T08:15:40.650Z,6.80
2023-09-07T08:20:42.717Z,7.00
2023-09-07T08:25:47.788Z,6.10
2023-09-07T08:30:57.830Z,5.90
2023-09-07T08:36:01.714Z,6.28
2023-09-07T08:41:07.094Z,5.82
2023-09-07T08:46:18.771Z,7.95
2023-09-07T08:51:21.379Z,5.32
2023-09-07T08:56:23.938Z,5.15
2023-09-07T09:01:25.834Z,5.50
2023-09-07T09:06:27.679Z,5.05
2023-09-07T09:11:29.451Z,5.68
2023-09-07T09:16:31.968Z,5.45
2023-09-07T09:21:33.717Z,5.60
2023-09-07T09:26:38.438Z,4.65
2023-09-07T09:31:40.818Z,5.15
2023-09-07T09:36:44.517Z,5.20
2023-09-07T09:41:46.504Z,5.20
2023-09-07T09:46:50.723Z,5.20
2023-09-07T09:51:52.565Z,5.10
2023-09-07T09:56:55.138Z,4.72
2023-09-07T10:01:58.364Z,4.50
2023-09-07T10:07:06.245Z,4.72
2023-09-07T10:12:16.340Z,4.50
2023-09-07T10:17:24.057Z,4.57
2023-09-07T10:22:26.596Z,4.95
2023-09-07T10:27:37.719Z,4.60
2023-09-07T10:32:42.721Z,4.35
2023-09-07T10:37:49.455Z,4.25
2023-09-07T10:43:02.353Z,4.43
2023-09-07T10:48:09.312Z,4.60
2023-09-07T10:53:13.323Z,4.30
2023-09-07T10:58:30.551Z,4.28
2023-09-07T11:03:33.570Z,4.47
2023-09-07T11:08:36.048Z,4.40
2023-09-07T11:13:37.845Z,4.25
2023-09-07T11:18:41.749Z,4.43
2023-09-07T11:23:44.866Z,4.35
2023-09-07T11:28:47.955Z,4.60
2023-09-07T11:33:50.418Z,4.07
2023-09-07T11:38:52.181Z,4.80
2023-09-07T11:43:53.944Z,4.00
2023-09-07T11:48:55.704Z,4.15
2023-09-07T11:53:57.494Z,4.38
2023-09-07T11:58:59.220Z,4.43
2023-09-07T12:04:01.068Z,4.38
2023-09-07T12:09:05.121Z,4.18
2023-09-07T12:14:07.142Z,4.05
2023-09-07T12:19:10.027Z,3.92
2023-09-07T12:24:13.357Z,4.75
2023-09-07T12:29:15.199Z,4.40
2023-09-07T12:34:17.103Z,3.95
2023-09-07T12:39:18.805Z,3.83
2023-09-07T12:44:22.089Z,3.70
2023-09-07T12:49:24.000Z,4.20
2023-09-07T12:54:25.960Z,3.63
2023-09-07T12:59:27.709Z,3.47
2023-09-07T13:04:29.422Z,3.55
2023-09-07T13:09:31.123Z,3.08
2023-09-07T13:14:34.559Z,3.28
2023-09-07T13:19:37.270Z,3.50
2023-09-07T13:24:39.045Z,3.30
2023-09-07T13:29:40.772Z,3.28
2023-09-07T13:34:42.491Z,3.20
2023-09-07T13:39:44.217Z,2.85
2023-09-07T13:44:48.285Z,2.92
2023-09-07T13:49:50.008Z,3.33
2023-09-07T13:54:51.708Z,3.05
2023-09-07T13:59:53.481Z,3.00
2023-09-07T14:04:55.209Z,3.08
2023-09-07T14:09:57.146Z,3.15
2023-09-07T14:14:58.960Z,3.10
2023-09-07T14:20:00.655Z,2.97
2023-09-07T14:25:02.509Z,3.20
2023-09-07T14:30:04.548Z,2.88
2023-09-07T14:35:06.660Z,3.35
2023-09-07T14:40:09.025Z,2.72
2023-09-07T14:45:10.922Z,2.85
2023-09-07T14:50:12.629Z,2.83
2023-09-07T14:55:15.904Z,2.75
2023-09-07T15:00:17.738Z,2.90
2023-09-07T15:05:19.602Z,2.70
2023-09-07T15:10:21.467Z,2.85
2023-09-07T15:15:23.384Z,2.55
2023-09-07T15:20:25.246Z,2.53
2023-09-07T15:25:29.806Z,2.47
2023-09-07T15:30:31.582Z,2.58
2023-09-07T15:35:33.592Z,2.35
2023-09-07T15:40:35.441Z,2.30
2023-09-07T15:45:39.840Z,2.25
2023-09-07T15:50:41.754Z,2.72
2023-09-07T15:55:43.613Z,2.47
2023-09-07T16:00:46.335Z,2.78
2023-09-07T16:05:48.742Z,2.70
2023-09-07T16:10:50.479Z,2.53
2023-09-07T16:15:52.253Z,3.35
2023-09-07T16:20:53.963Z,2.97
2023-09-07T16:25:55.998Z,3.20
2023-09-07T16:30:58.934Z,3.72
2023-09-07T16:36:01.460Z,3.55
2023-09-07T16:41:06.891Z,3.35
2023-09-07T16:46:08.646Z,3.63
2023-09-07T16:51:10.416Z,3.55
2023-09-07T16:56:13.118Z,3.75
2023-09-07T17:01:14.904Z,4.40
2023-09-07T17:06:17.029Z,3.95
2023-09-07T17:11:18.827Z,4.45
2023-09-07T17:16:20.682Z,4.85
2023-09-07T17:21:22.464Z,4.40
2023-09-07T17:26:24.239Z,4.30
2023-09-07T17:31:27.367Z,4.40
2023-09-07T17:36:29.421Z,4.63
2023-09-07T17:41:36.124Z,4.45
2023-09-07T17:46:38.922Z,4.70
2023-09-07T17:51:40.685Z,4.57
2023-09-07T17:56:42.573Z,4.60
2023-09-07T18:01:44.576Z,5.07
2023-09-07T18:06:46.386Z,5.30
2023-09-07T18:11:48.115Z,4.60
2023-09-07T18:16:49.948Z,5.05
2023-09-07T18:21:51.721Z,5.13
2023-09-07T18:26:53.446Z,5.38
2023-09-07T18:31:55.416Z,4.68
2023-09-07T18:36:57.171Z,5.45
2023-09-07T18:41:58.942Z,5.40
2023-09-07T18:47:00.772Z,5.30
2023-09-07T18:52:02.669Z,4.90
2023-09-07T18:57:04.592Z,4.68
2023-09-07T19:02:06.450Z,4.60
2023-09-07T19:07:08.246Z,4.30
2023-09-07T19:12:10.046Z,4.32
2023-09-07T19:17:12.881Z,4.82
2023-09-07T19:22:14.620Z,5.10
2023-09-07T19:27:16.359Z,4.53
2023-09-07T19:32:19.250Z,4.65
2023-09-07T19:37:22.581Z,4.75
2023-09-07T19:42:25.575Z,5.15
2023-09-07T19:47:27.531Z,5.00
2023-09-07T19:52:29.449Z,4.85
2023-09-07T19:57:31.403Z,4.90
2023-09-07T20:02:33.355Z,5.20
2023-09-07T20:07:40.194Z,4.25
2023-09-07T20:12:42.033Z,4.88
2023-09-07T20:17:44.652Z,5.03
2023-09-07T20:22:46.721Z,4.60
2023-09-07T20:27:49.300Z,4.18
2023-09-07T20:32:51.500Z,5.18
2023-09-07T20:37:53.303Z,4.90
2023-09-07T20:42:58.004Z,5.32
2023-09-07T20:47:59.988Z,4.90
2023-09-07T20:53:01.865Z,4.70
2023-09-07T20:58:04.185Z,4.72
2023-09-07T21:03:06.578Z,5.13
2023-09-07T21:08:08.520Z,4.78
2023-09-07T21:13:10.499Z,4.90
2023-09-07T21:18:12.468Z,5.15
2023-09-07T21:23:14.755Z,5.22
2023-09-07T21:28:16.612Z,5.30
2023-09-07T21:33:18.430Z,5.38
2023-09-07T21:38:20.285Z,5.25
2023-09-07T21:43:22.704Z,5.57
2023-09-07T21:48:24.981Z,5.10
2023-09-07T21:53:26.825Z,5.20
2023-09-07T21:58:28.547Z,5.60
2023-09-07T22:03:30.371Z,5.55
2023-09-07T22:08:32.595Z,5.50
2023-09-07T22:13:34.663Z,5.30
2023-09-07T22:18:36.870Z,5.72
2023-09-07T22:23:43.453Z,5.63
2023-09-07T22:28:46.080Z,5.70
2023-09-07T22:33:47.853Z,5.80
2023-09-07T22:38:51.091Z,5.95
2023-09-07T22:43:53.204Z,5.50
2023-09-07T22:48:55.086Z,5.53
2023-09-07T22:53:57.104Z,5.78
2023-09-07T22:58:59.710Z,5.68
2023-09-07T23:04:01.548Z,5.75
2023-09-07T23:09:07.563Z,5.72
2023-09-07T23:14:09.936Z,5.78
2023-09-07T23:19:11.776Z,5.80
2023-09-07T23:29:30.454Z,6.10
2023-09-07T23:34:32.573Z,6.00
2023-09-07T23:39:35.185Z,6.10
2023-09-07T23:44:38.327Z,6.20
2023-09-07T23:49:40.125Z,6.15
2023-09-07T23:54:42.259Z,6.35
2023-09-07T23:59:44.149Z,6.40
